sensor_id;sensor_type;location;lat;lon;timestamp;pressure;altitude;pressure_sealevel;temperature;humidity
43125;BME280;49182;50.788;7.318;2022-09-03T00:02:32;100413.25;;;12.41;68.56
43125;BME280;49182;50.788;7.318;2022-09-03T00:05:04;100427.91;;;12.53;68.99
43125;BME280;49182;50.788;7.318;2022-09-03T00:07:38;100428.09;;;12.52;69.11
43125;BME280;49182;50.788;7.318;2022-09-03T00:10:14;100430.75;;;12.52;69.73
43125;BME280;49182;50.788;7.318;2022-09-03T00:12:45;100426.56;;;12.49;69.78
43125;BME280;49182;50.788;7.318;2022-09-03T00:15:14;100425.22;;;12.45;69.78
43125;BME280;49182;50.788;7.318;2022-09-03T00:17:47;100423.84;;;12.41;69.79
43125;BME280;49182;50.788;7.318;2022-09-03T00:20:18;100427.63;;;12.39;69.74
43125;BME280;49182;50.788;7.318;2022-09-03T00:22:47;100419.91;;;12.28;69.41
43125;BME280;49182;50.788;7.318;2022-09-03T00:25:21;100413.59;;;12.29;69.51
43125;BME280;49182;50.788;7.318;2022-09-03T00:27:56;100436.19;;;12.33;70.01
43125;BME280;49182;50.788;7.318;2022-09-03T00:30:24;100434.13;;;12.27;70.03
43125;BME280;49182;50.788;7.318;2022-09-03T00:32:55;100424.50;;;12.26;70.18
43125;BME280;49182;50.788;7.318;2022-09-03T00:35:26;100425.81;;;12.22;69.88
43125;BME280;49182;50.788;7.318;2022-09-03T00:37:54;100432.22;;;12.19;70.32
43125;BME280;49182;50.788;7.318;2022-09-03T00:40:44;100422.75;;;12.16;70.13
43125;BME280;49182;50.788;7.318;2022-09-03T00:43:22;100422.59;;;12.18;70.22
43125;BME280;49182;50.788;7.318;2022-09-03T00:45:57;100425.56;;;12.15;69.82
43125;BME280;49182;50.788;7.318;2022-09-03T00:48:30;100415.13;;;12.13;70.25
43125;BME280;49182;50.788;7.318;2022-09-03T00:51:09;100392.63;;;12.00;70.48
43125;BME280;49182;50.788;7.318;2022-09-03T00:53:47;100414.28;;;12.13;70.60
43125;BME280;49182;50.788;7.318;2022-09-03T00:56:20;100388.63;;;11.96;70.85
43125;BME280;49182;50.788;7.318;2022-09-03T00:59:01;100403.31;;;12.08;70.83
43125;BME280;49182;50.788;7.318;2022-09-03T01:01:39;100413.06;;;12.07;70.76
43125;BME280;49182;50.788;7.318;2022-09-03T01:04:23;100415.72;;;12.07;70.54
43125;BME280;49182;50.788;7.318;2022-09-03T01:06:57;100414.75;;;12.08;70.22
43125;BME280;49182;50.788;7.318;2022-09-03T01:09:40;100418.75;;;12.12;70.70
43125;BME280;49182;50.788;7.318;2022-09-03T01:12:17;100414.97;;;12.15;70.45
43125;BME280;49182;50.788;7.318;2022-09-03T01:14:54;100405.00;;;12.09;69.87
43125;BME280;49182;50.788;7.318;2022-09-03T01:17:35;100425.25;;;12.18;70.16
43125;BME280;49182;50.788;7.318;2022-09-03T01:23:23;100419.69;;;12.21;69.42
43125;BME280;49182;50.788;7.318;2022-09-03T01:26:02;100422.31;;;12.21;69.30
43125;BME280;49182;50.788;7.318;2022-09-03T01:29:05;100403.84;;;12.11;69.68
43125;BME280;49182;50.788;7.318;2022-09-03T01:31:40;100420.50;;;12.22;69.81
43125;BME280;49182;50.788;7.318;2022-09-03T01:34:17;100420.06;;;12.26;70.09
43125;BME280;49182;50.788;7.318;2022-09-03T01:36:54;100416.56;;;12.26;70.37
43125;BME280;49182;50.788;7.318;2022-09-03T01:39:30;100416.84;;;12.23;70.52
43125;BME280;49182;50.788;7.318;2022-09-03T01:42:04;100424.97;;;12.21;70.53
43125;BME280;49182;50.788;7.318;2022-09-03T01:44:45;100418.22;;;12.09;69.92
43125;BME280;49182;50.788;7.318;2022-09-03T01:47:26;100412.09;;;12.08;70.42
43125;BME280;49182;50.788;7.318;2022-09-03T01:50:02;100419.25;;;12.16;70.45
43125;BME280;49182;50.788;7.318;2022-09-03T01:52:40;100420.28;;;12.15;70.25
43125;BME280;49182;50.788;7.318;2022-09-03T01:55:19;100414.16;;;12.14;70.46
43125;BME280;49182;50.788;7.318;2022-09-03T01:57:53;100412.75;;;12.10;70.14
43125;BME280;49182;50.788;7.318;2022-09-03T02:00:24;100411.25;;;12.08;70.43
43125;BME280;49182;50.788;7.318;2022-09-03T02:02:52;100416.69;;;12.06;70.46
43125;BME280;49182;50.788;7.318;2022-09-03T02:05:21;100419.47;;;12.05;70.14
43125;BME280;49182;50.788;7.318;2022-09-03T02:07:50;100421.75;;;12.00;70.06
43125;BME280;49182;50.788;7.318;2022-09-03T02:10:20;100416.31;;;12.01;70.44
43125;BME280;49182;50.788;7.318;2022-09-03T02:12:50;100405.63;;;11.93;70.34
43125;BME280;49182;50.788;7.318;2022-09-03T02:15:20;100407.81;;;11.98;70.15
43125;BME280;49182;50.788;7.318;2022-09-03T02:17:52;100412.44;;;11.96;70.20
43125;BME280;49182;50.788;7.318;2022-09-03T02:20:22;100417.88;;;11.94;70.54
43125;BME280;49182;50.788;7.318;2022-09-03T02:22:51;100407.44;;;11.93;70.81
43125;BME280;49182;50.788;7.318;2022-09-03T02:25:20;100413.13;;;11.98;71.35
43125;BME280;49182;50.788;7.318;2022-09-03T02:27:49;100407.28;;;11.94;71.06
43125;BME280;49182;50.788;7.318;2022-09-03T02:30:16;100399.25;;;11.86;71.11
43125;BME280;49182;50.788;7.318;2022-09-03T02:32:43;100416.34;;;11.92;71.08
43125;BME280;49182;50.788;7.318;2022-09-03T02:35:11;100407.06;;;11.88;71.31
43125;BME280;49182;50.788;7.318;2022-09-03T02:37:38;100407.88;;;11.88;71.60
43125;BME280;49182;50.788;7.318;2022-09-03T02:40:06;100411.66;;;11.86;71.66
43125;BME280;49182;50.788;7.318;2022-09-03T02:42:33;100405.38;;;11.87;71.75
43125;BME280;49182;50.788;7.318;2022-09-03T02:45:08;100415.31;;;11.85;72.00
43125;BME280;49182;50.788;7.318;2022-09-03T02:47:37;100407.63;;;11.82;72.20
43125;BME280;49182;50.788;7.318;2022-09-03T02:50:06;100408.75;;;11.79;72.50
43125;BME280;49182;50.788;7.318;2022-09-03T02:52:34;100416.56;;;11.81;72.11
43125;BME280;49182;50.788;7.318;2022-09-03T02:55:01;100404.19;;;11.71;71.81
43125;BME280;49182;50.788;7.318;2022-09-03T02:57:27;100410.59;;;11.79;72.58
43125;BME280;49182;50.788;7.318;2022-09-03T02:59:54;100418.66;;;11.77;72.28
43125;BME280;49182;50.788;7.318;2022-09-03T03:02:20;100411.84;;;11.74;71.98
43125;BME280;49182;50.788;7.318;2022-09-03T03:04:47;100406.84;;;11.71;71.94
43125;BME280;49182;50.788;7.318;2022-09-03T03:07:14;100407.53;;;11.73;72.45
43125;BME280;49182;50.788;7.318;2022-09-03T03:09:42;100402.09;;;11.75;73.06
43125;BME280;49182;50.788;7.318;2022-09-03T03:12:08;100403.63;;;11.78;73.61
43125;BME280;49182;50.788;7.318;2022-09-03T03:14:35;100380.66;;;11.68;73.52
43125;BME280;49182;50.788;7.318;2022-09-03T03:17:02;100395.97;;;11.74;73.19
43125;BME280;49182;50.788;7.318;2022-09-03T03:19:29;100383.31;;;11.68;73.26
43125;BME280;49182;50.788;7.318;2022-09-03T03:21:55;100393.63;;;11.71;73.45
43125;BME280;49182;50.788;7.318;2022-09-03T03:24:22;100385.97;;;11.68;73.36
43125;BME280;49182;50.788;7.318;2022-09-03T03:26:50;100397.50;;;11.67;73.85
43125;BME280;49182;50.788;7.318;2022-09-03T03:29:16;100389.88;;;11.64;73.55
43125;BME280;49182;50.788;7.318;2022-09-03T03:31:43;100377.13;;;11.50;73.53
43125;BME280;49182;50.788;7.318;2022-09-03T03:34:10;100388.50;;;11.60;73.67
43125;BME280;49182;50.788;7.318;2022-09-03T03:36:36;100375.31;;;11.51;73.63
43125;BME280;49182;50.788;7.318;2022-09-03T03:39:03;100390.16;;;11.61;73.40
43125;BME280;49182;50.788;7.318;2022-09-03T03:41:31;100382.78;;;11.65;73.38
43125;BME280;49182;50.788;7.318;2022-09-03T03:44:01;100359.91;;;11.46;73.74
43125;BME280;49182;50.788;7.318;2022-09-03T03:46:30;100390.47;;;11.58;73.81
43125;BME280;49182;50.788;7.318;2022-09-03T03:48:57;100393.78;;;11.60;74.06
43125;BME280;49182;50.788;7.318;2022-09-03T03:51:24;100387.00;;;11.58;74.30
43125;BME280;49182;50.788;7.318;2022-09-03T03:53:53;100387.81;;;11.58;74.35
43125;BME280;49182;50.788;7.318;2022-09-03T03:56:20;100384.22;;;11.50;74.21
43125;BME280;49182;50.788;7.318;2022-09-03T03:58:47;100390.06;;;11.53;74.04
43125;BME280;49182;50.788;7.318;2022-09-03T04:01:16;100382.28;;;11.52;74.11
43125;BME280;49182;50.788;7.318;2022-09-03T04:03:44;100392.88;;;11.52;73.86
43125;BME280;49182;50.788;7.318;2022-09-03T04:06:12;100375.31;;;11.51;74.15
43125;BME280;49182;50.788;7.318;2022-09-03T04:08:40;100380.16;;;11.55;73.92
43125;BME280;49182;50.788;7.318;2022-09-03T04:11:10;100381.13;;;11.54;74.10
43125;BME280;49182;50.788;7.318;2022-09-03T04:13:39;100383.78;;;11.54;74.20
43125;BME280;49182;50.788;7.318;2022-09-03T04:16:07;100385.47;;;11.55;74.05
43125;BME280;49182;50.788;7.318;2022-09-03T04:18:37;100385.63;;;11.54;73.96
43125;BME280;49182;50.788;7.318;2022-09-03T04:21:05;100390.34;;;11.60;74.03
43125;BME280;49182;50.788;7.318;2022-09-03T04:23:32;100389.06;;;11.64;73.93
43125;BME280;49182;50.788;7.318;2022-09-03T04:25:59;100385.13;;;11.68;73.72
43125;BME280;49182;50.788;7.318;2022-09-03T04:28:27;100385.50;;;11.73;73.67
43125;BME280;49182;50.788;7.318;2022-09-03T04:30:53;100375.78;;;11.73;73.71
43125;BME280;49182;50.788;7.318;2022-09-03T04:33:23;100386.88;;;11.87;73.81
43125;BME280;49182;50.788;7.318;2022-09-03T04:35:51;100394.34;;;11.91;73.97
43125;BME280;49182;50.788;7.318;2022-09-03T04:38:18;100394.59;;;11.98;74.07
43125;BME280;49182;50.788;7.318;2022-09-03T04:40:50;100384.69;;;12.00;73.64
43125;BME280;49182;50.788;7.318;2022-09-03T04:43:17;100384.25;;;12.04;73.54
43125;BME280;49182;50.788;7.318;2022-09-03T04:45:44;100383.81;;;12.09;73.05
43125;BME280;49182;50.788;7.318;2022-09-03T04:48:10;100381.69;;;12.12;73.02
43125;BME280;49182;50.788;7.318;2022-09-03T04:50:37;100379.97;;;12.21;72.53
43125;BME280;49182;50.788;7.318;2022-09-03T04:53:05;100382.16;;;12.26;73.14
43125;BME280;49182;50.788;7.318;2022-09-03T04:55:34;100382.00;;;12.27;73.38
43125;BME280;49182;50.788;7.318;2022-09-03T04:58:01;100383.00;;;12.26;73.42
43125;BME280;49182;50.788;7.318;2022-09-03T05:00:28;100387.97;;;12.29;73.04
43125;BME280;49182;50.788;7.318;2022-09-03T05:02:54;100372.88;;;12.22;72.90
43125;BME280;49182;50.788;7.318;2022-09-03T05:05:21;100379.88;;;12.31;73.01
43125;BME280;49182;50.788;7.318;2022-09-03T05:07:47;100380.56;;;12.33;72.55
43125;BME280;49182;50.788;7.318;2022-09-03T05:10:16;100389.41;;;12.41;72.32
43125;BME280;49182;50.788;7.318;2022-09-03T05:12:42;100388.44;;;12.42;72.10
43125;BME280;49182;50.788;7.318;2022-09-03T05:15:09;100400.31;;;12.56;71.90
43125;BME280;49182;50.788;7.318;2022-09-03T05:17:36;100398.88;;;12.62;71.69
43125;BME280;49182;50.788;7.318;2022-09-03T05:20:04;100382.28;;;12.60;71.29
43125;BME280;49182;50.788;7.318;2022-09-03T05:22:31;100390.69;;;12.73;71.09
43125;BME280;49182;50.788;7.318;2022-09-03T05:24:57;100393.25;;;12.82;71.25
43125;BME280;49182;50.788;7.318;2022-09-03T05:27:25;100393.47;;;12.89;71.37
43125;BME280;49182;50.788;7.318;2022-09-03T05:29:52;100398.81;;;12.97;71.76
43125;BME280;49182;50.788;7.318;2022-09-03T05:32:18;100398.88;;;13.05;71.78
43125;BME280;49182;50.788;7.318;2022-09-03T05:34:45;100403.56;;;13.11;71.85
43125;BME280;49182;50.788;7.318;2022-09-03T05:37:11;100395.69;;;13.19;71.37
43125;BME280;49182;50.788;7.318;2022-09-03T05:39:38;100379.44;;;13.14;71.30
43125;BME280;49182;50.788;7.318;2022-09-03T05:42:05;100395.41;;;13.30;71.13
43125;BME280;49182;50.788;7.318;2022-09-03T05:44:33;100388.34;;;13.39;71.48
43125;BME280;49182;50.788;7.318;2022-09-03T05:47:00;100377.38;;;13.34;70.75
43125;BME280;49182;50.788;7.318;2022-09-03T05:49:26;100388.38;;;13.47;70.89
43125;BME280;49182;50.788;7.318;2022-09-03T05:51:55;100362.19;;;13.44;70.71
43125;BME280;49182;50.788;7.318;2022-09-03T05:54:23;100398.09;;;13.72;69.88
43125;BME280;49182;50.788;7.318;2022-09-03T05:56:50;100368.72;;;13.66;69.81
43125;BME280;49182;50.788;7.318;2022-09-03T05:59:17;100392.53;;;13.92;70.18
43125;BME280;49182;50.788;7.318;2022-09-03T06:01:45;100383.25;;;13.96;69.76
43125;BME280;49182;50.788;7.318;2022-09-03T06:04:17;100389.78;;;14.09;69.57
43125;BME280;49182;50.788;7.318;2022-09-03T06:06:46;100380.66;;;14.12;69.56
43125;BME280;49182;50.788;7.318;2022-09-03T06:09:14;100401.13;;;14.36;69.43
43125;BME280;49182;50.788;7.318;2022-09-03T06:11:41;100371.38;;;14.32;69.70
43125;BME280;49182;50.788;7.318;2022-09-03T06:14:10;100407.31;;;14.61;69.01
43125;BME280;49182;50.788;7.318;2022-09-03T06:16:38;100407.66;;;14.74;69.41
43125;BME280;49182;50.788;7.318;2022-09-03T06:19:08;100415.13;;;14.86;67.23
43125;BME280;49182;50.788;7.318;2022-09-03T06:21:35;100418.44;;;14.96;68.40
43125;BME280;49182;50.788;7.318;2022-09-03T06:24:03;100412.78;;;15.08;68.17
43125;BME280;49182;50.788;7.318;2022-09-03T06:26:29;100415.06;;;15.19;67.74
43125;BME280;49182;50.788;7.318;2022-09-03T06:28:56;100420.91;;;15.30;67.49
43125;BME280;49182;50.788;7.318;2022-09-03T06:31:23;100408.22;;;15.49;64.15
43125;BME280;49182;50.788;7.318;2022-09-03T06:33:50;100421.19;;;15.60;64.83
43125;BME280;49182;50.788;7.318;2022-09-03T06:36:19;100411.16;;;15.70;65.96
43125;BME280;49182;50.788;7.318;2022-09-03T06:38:46;100408.13;;;15.81;64.72
43125;BME280;49182;50.788;7.318;2022-09-03T06:41:14;100393.66;;;15.75;63.75
43125;BME280;49182;50.788;7.318;2022-09-03T06:43:42;100413.84;;;16.01;63.18
43125;BME280;49182;50.788;7.318;2022-09-03T06:46:10;100411.00;;;16.10;60.24
43125;BME280;49182;50.788;7.318;2022-09-03T06:48:38;100417.06;;;16.19;61.21
43125;BME280;49182;50.788;7.318;2022-09-03T06:51:07;100405.09;;;16.23;61.11
43125;BME280;49182;50.788;7.318;2022-09-03T06:53:37;100419.66;;;16.35;61.68
43125;BME280;49182;50.788;7.318;2022-09-03T06:56:05;100408.47;;;16.40;62.01
43125;BME280;49182;50.788;7.318;2022-09-03T06:58:34;100405.56;;;16.49;61.60
43125;BME280;49182;50.788;7.318;2022-09-03T07:01:04;100420.16;;;16.62;60.12
43125;BME280;49182;50.788;7.318;2022-09-03T07:03:31;100420.88;;;16.78;56.50
43125;BME280;49182;50.788;7.318;2022-09-03T07:06:02;100419.19;;;17.00;54.17
43125;BME280;49182;50.788;7.318;2022-09-03T07:08:29;100378.28;;;16.70;55.14
43125;BME280;49182;50.788;7.318;2022-09-03T07:10:57;100417.84;;;17.19;55.38
43125;BME280;49182;50.788;7.318;2022-09-03T07:13:24;100409.50;;;17.22;55.07
43125;BME280;49182;50.788;7.318;2022-09-03T07:15:58;100407.72;;;17.29;54.03
43125;BME280;49182;50.788;7.318;2022-09-03T07:18:25;100422.19;;;17.49;51.44
43125;BME280;49182;50.788;7.318;2022-09-03T07:20:57;100421.00;;;17.52;51.76
43125;BME280;49182;50.788;7.318;2022-09-03T07:23:23;100419.06;;;17.46;52.55
43125;BME280;49182;50.788;7.318;2022-09-03T07:25:52;100421.63;;;17.54;52.42
43125;BME280;49182;50.788;7.318;2022-09-03T07:28:20;100427.38;;;17.65;52.46
43125;BME280;49182;50.788;7.318;2022-09-03T07:30:47;100428.94;;;17.74;51.36
43125;BME280;49182;50.788;7.318;2022-09-03T07:33:14;100403.16;;;17.67;51.01
43125;BME280;49182;50.788;7.318;2022-09-03T07:35:40;100426.47;;;17.88;50.92
43125;BME280;49182;50.788;7.318;2022-09-03T07:38:07;100434.72;;;17.93;51.15
43125;BME280;49182;50.788;7.318;2022-09-03T07:40:33;100426.41;;;18.02;50.28
43125;BME280;49182;50.788;7.318;2022-09-03T07:43:00;100435.16;;;18.11;49.97
43125;BME280;49182;50.788;7.318;2022-09-03T07:45:28;100430.34;;;18.21;49.58
43125;BME280;49182;50.788;7.318;2022-09-03T07:47:55;100418.63;;;18.22;49.54
43125;BME280;49182;50.788;7.318;2022-09-03T07:50:21;100429.22;;;18.30;50.42
43125;BME280;49182;50.788;7.318;2022-09-03T07:52:48;100436.75;;;18.41;50.64
43125;BME280;49182;50.788;7.318;2022-09-03T07:55:15;100438.72;;;18.54;50.27
43125;BME280;49182;50.788;7.318;2022-09-03T07:57:42;100433.53;;;18.67;49.03
43125;BME280;49182;50.788;7.318;2022-09-03T08:00:09;100438.56;;;18.77;48.00
43125;BME280;49182;50.788;7.318;2022-09-03T08:02:38;100441.53;;;18.82;48.78
43125;BME280;49182;50.788;7.318;2022-09-03T08:05:11;100440.69;;;18.81;49.50
43125;BME280;49182;50.788;7.318;2022-09-03T08:07:40;100432.50;;;18.89;48.46
43125;BME280;49182;50.788;7.318;2022-09-03T08:10:08;100458.38;;;19.04;48.28
43125;BME280;49182;50.788;7.318;2022-09-03T08:12:34;100451.81;;;19.06;48.03
43125;BME280;49182;50.788;7.318;2022-09-03T08:15:01;100451.88;;;19.13;47.91
43125;BME280;49182;50.788;7.318;2022-09-03T08:17:28;100452.28;;;19.16;47.97
43125;BME280;49182;50.788;7.318;2022-09-03T08:19:56;100454.00;;;19.24;46.96
43125;BME280;49182;50.788;7.318;2022-09-03T08:22:26;100461.88;;;19.32;46.79
43125;BME280;49182;50.788;7.318;2022-09-03T08:24:52;100456.88;;;19.22;47.28
43125;BME280;49182;50.788;7.318;2022-09-03T08:27:19;100461.59;;;19.20;47.72
43125;BME280;49182;50.788;7.318;2022-09-03T08:29:46;100464.91;;;19.22;48.68
43125;BME280;49182;50.788;7.318;2022-09-03T08:32:12;100464.25;;;19.20;49.25
43125;BME280;49182;50.788;7.318;2022-09-03T08:34:39;100468.00;;;19.26;49.41
43125;BME280;49182;50.788;7.318;2022-09-03T08:37:07;100467.41;;;19.24;50.40
43125;BME280;49182;50.788;7.318;2022-09-03T08:39:34;100468.19;;;19.18;50.71
43125;BME280;49182;50.788;7.318;2022-09-03T08:45:05;100444.69;;;19.13;52.19
43125;BME280;49182;50.788;7.318;2022-09-03T08:47:38;100470.31;;;19.29;53.07
43125;BME280;49182;50.788;7.318;2022-09-03T08:50:11;100466.84;;;19.35;54.00
43125;BME280;49182;50.788;7.318;2022-09-03T08:52:45;100459.72;;;19.42;52.52
43125;BME280;49182;50.788;7.318;2022-09-03T08:55:17;100461.81;;;19.47;51.94
43125;BME280;49182;50.788;7.318;2022-09-03T08:57:50;100460.34;;;19.44;52.35
43125;BME280;49182;50.788;7.318;2022-09-03T09:00:18;100466.34;;;19.46;53.24
43125;BME280;49182;50.788;7.318;2022-09-03T09:02:54;100458.56;;;19.51;52.18
43125;BME280;49182;50.788;7.318;2022-09-03T09:05:36;100462.06;;;19.52;52.55
43125;BME280;49182;50.788;7.318;2022-09-03T09:08:11;100459.63;;;19.57;50.72
43125;BME280;49182;50.788;7.318;2022-09-03T09:10:46;100448.09;;;19.56;50.83
43125;BME280;49182;50.788;7.318;2022-09-03T09:13:19;100467.13;;;19.68;50.46
43125;BME280;49182;50.788;7.318;2022-09-03T09:15:53;100461.53;;;19.69;50.32
43125;BME280;49182;50.788;7.318;2022-09-03T09:18:34;100451.38;;;19.58;50.46
43125;BME280;49182;50.788;7.318;2022-09-03T09:21:08;100422.41;;;19.40;49.75
43125;BME280;49182;50.788;7.318;2022-09-03T09:23:40;100455.13;;;19.64;49.69
43125;BME280;49182;50.788;7.318;2022-09-03T09:26:11;100440.69;;;19.58;49.58
43125;BME280;49182;50.788;7.318;2022-09-03T09:28:38;100446.13;;;19.71;49.60
43125;BME280;49182;50.788;7.318;2022-09-03T09:31:07;100439.31;;;19.75;49.07
43125;BME280;49182;50.788;7.318;2022-09-03T09:33:36;100441.66;;;19.85;48.88
43125;BME280;49182;50.788;7.318;2022-09-03T09:36:05;100458.66;;;20.05;48.32
43125;BME280;49182;50.788;7.318;2022-09-03T09:38:34;100422.22;;;19.76;48.50
43125;BME280;49182;50.788;7.318;2022-09-03T09:41:13;100442.16;;;20.08;48.31
43125;BME280;49182;50.788;7.318;2022-09-03T09:43:42;100457.69;;;20.26;48.25
43125;BME280;49182;50.788;7.318;2022-09-03T09:46:12;100427.16;;;20.20;48.21
43125;BME280;49182;50.788;7.318;2022-09-03T09:48:47;100436.13;;;20.41;47.11
43125;BME280;49182;50.788;7.318;2022-09-03T09:51:19;100450.38;;;20.48;47.40
43125;BME280;49182;50.788;7.318;2022-09-03T09:54:00;100431.81;;;20.46;47.18
43125;BME280;49182;50.788;7.318;2022-09-03T09:56:29;100387.13;;;20.19;47.30
43125;BME280;49182;50.788;7.318;2022-09-03T09:59:04;100447.13;;;20.66;47.79
43125;BME280;49182;50.788;7.318;2022-09-03T10:01:31;100375.44;;;20.33;47.32
43125;BME280;49182;50.788;7.318;2022-09-03T10:04:09;100458.50;;;20.94;46.71
43125;BME280;49182;50.788;7.318;2022-09-03T10:06:44;100459.13;;;20.96;47.02
43125;BME280;49182;50.788;7.318;2022-09-03T10:09:14;100440.34;;;20.89;47.40
43125;BME280;49182;50.788;7.318;2022-09-03T10:11:44;100424.63;;;20.93;47.62
43125;BME280;49182;50.788;7.318;2022-09-03T10:14:20;100440.38;;;21.22;46.74
43125;BME280;49182;50.788;7.318;2022-09-03T10:16:53;100465.13;;;21.51;46.82
43125;BME280;49182;50.788;7.318;2022-09-03T10:19:39;100397.16;;;21.30;46.02
43125;BME280;49182;50.788;7.318;2022-09-03T10:22:15;100440.91;;;21.64;45.81
43125;BME280;49182;50.788;7.318;2022-09-03T10:24:48;100463.22;;;21.84;46.62
43125;BME280;49182;50.788;7.318;2022-09-03T10:27:22;100430.13;;;21.77;45.83
43125;BME280;49182;50.788;7.318;2022-09-03T10:29:49;100401.81;;;21.68;46.00
43125;BME280;49182;50.788;7.318;2022-09-03T10:32:34;100447.44;;;22.07;46.16
43125;BME280;49182;50.788;7.318;2022-09-03T10:35:20;100455.84;;;22.24;45.72
43125;BME280;49182;50.788;7.318;2022-09-03T10:37:54;100457.44;;;22.38;45.22
43125;BME280;49182;50.788;7.318;2022-09-03T10:40:30;100466.47;;;22.50;45.11
43125;BME280;49182;50.788;7.318;2022-09-03T10:43:31;100464.94;;;22.61;44.82
43125;BME280;49182;50.788;7.318;2022-09-03T10:46:09;100435.78;;;22.58;44.51
43125;BME280;49182;50.788;7.318;2022-09-03T10:48:46;100434.47;;;22.67;44.51
43125;BME280;49182;50.788;7.318;2022-09-03T10:51:18;100422.06;;;22.66;43.87
43125;BME280;49182;50.788;7.318;2022-09-03T10:53:59;100418.09;;;22.75;44.48
43125;BME280;49182;50.788;7.318;2022-09-03T10:56:31;100413.19;;;22.90;44.00
43125;BME280;49182;50.788;7.318;2022-09-03T10:59:13;100390.91;;;22.83;44.15
43125;BME280;49182;50.788;7.318;2022-09-03T11:01:52;100407.16;;;23.20;43.51
43125;BME280;49182;50.788;7.318;2022-09-03T11:04:27;100440.34;;;23.63;42.97
43125;BME280;49182;50.788;7.318;2022-09-03T11:07:06;100440.41;;;23.75;44.49
43125;BME280;49182;50.788;7.318;2022-09-03T11:09:36;100443.59;;;24.02;42.99
43125;BME280;49182;50.788;7.318;2022-09-03T11:12:06;100433.44;;;24.22;42.72
43125;BME280;49182;50.788;7.318;2022-09-03T11:14:37;100436.78;;;24.36;41.86
43125;BME280;49182;50.788;7.318;2022-09-03T11:17:09;100437.09;;;24.57;42.27
43125;BME280;49182;50.788;7.318;2022-09-03T11:19:44;100416.00;;;24.78;41.57
43125;BME280;49182;50.788;7.318;2022-09-03T11:22:13;100410.84;;;24.88;40.49
43125;BME280;49182;50.788;7.318;2022-09-03T11:24:50;100425.47;;;24.98;39.91
43125;BME280;49182;50.788;7.318;2022-09-03T11:27:30;100417.72;;;24.90;40.65
43125;BME280;49182;50.788;7.318;2022-09-03T11:30:03;100422.78;;;24.98;40.60
43125;BME280;49182;50.788;7.318;2022-09-03T11:32:41;100408.22;;;25.00;40.18
43125;BME280;49182;50.788;7.318;2022-09-03T11:35:13;100403.28;;;25.08;40.64
43125;BME280;49182;50.788;7.318;2022-09-03T11:37:49;100409.16;;;25.17;40.56
43125;BME280;49182;50.788;7.318;2022-09-03T11:40:18;100412.53;;;25.12;40.59
43125;BME280;49182;50.788;7.318;2022-09-03T11:42:45;100417.16;;;25.12;40.83
43125;BME280;49182;50.788;7.318;2022-09-03T11:45:21;100414.56;;;25.17;41.49
43125;BME280;49182;50.788;7.318;2022-09-03T11:47:49;100410.94;;;25.11;41.17
43125;BME280;49182;50.788;7.318;2022-09-03T11:50:20;100410.94;;;25.11;41.32
43125;BME280;49182;50.788;7.318;2022-09-03T11:52:49;100385.25;;;24.79;41.55
43125;BME280;49182;50.788;7.318;2022-09-03T11:55:29;100396.59;;;24.69;42.16
43125;BME280;49182;50.788;7.318;2022-09-03T11:58:11;100413.06;;;24.68;42.68
43125;BME280;49182;50.788;7.318;2022-09-03T12:00:43;100417.50;;;24.62;42.85
43125;BME280;49182;50.788;7.318;2022-09-03T12:03:12;100401.13;;;24.45;43.08
43125;BME280;49182;50.788;7.318;2022-09-03T12:05:47;100411.09;;;24.45;43.37
43125;BME280;49182;50.788;7.318;2022-09-03T12:11:36;100398.22;;;24.58;43.21
43125;BME280;49182;50.788;7.318;2022-09-03T12:14:12;100414.56;;;24.64;42.94
43125;BME280;49182;50.788;7.318;2022-09-03T12:17:07;100411.81;;;24.52;43.46
43125;BME280;49182;50.788;7.318;2022-09-03T12:19:43;100420.06;;;24.57;43.52
43125;BME280;49182;50.788;7.318;2022-09-03T12:22:14;100335.69;;;24.20;44.90
43125;BME280;49182;50.788;7.318;2022-09-03T12:24:41;100403.00;;;24.86;43.65
43125;BME280;49182;50.788;7.318;2022-09-03T12:27:09;100399.28;;;24.99;42.80
43125;BME280;49182;50.788;7.318;2022-09-03T12:29:49;100399.63;;;25.14;42.58
43125;BME280;49182;50.788;7.318;2022-09-03T12:32:18;100396.59;;;25.22;42.81
43125;BME280;49182;50.788;7.318;2022-09-03T12:34:47;100397.84;;;25.31;42.90
43125;BME280;49182;50.788;7.318;2022-09-03T12:37:19;100389.75;;;25.43;42.25
43125;BME280;49182;50.788;7.318;2022-09-03T12:40:15;100391.28;;;25.62;42.42
43125;BME280;49182;50.788;7.318;2022-09-03T12:42:42;100385.28;;;25.72;42.41
43125;BME280;49182;50.788;7.318;2022-09-03T12:45:09;100386.53;;;25.81;42.00
43125;BME280;49182;50.788;7.318;2022-09-03T12:47:39;100381.22;;;25.86;41.66
43125;BME280;49182;50.788;7.318;2022-09-03T12:50:07;100377.41;;;25.99;42.22
43125;BME280;49182;50.788;7.318;2022-09-03T12:52:37;100382.88;;;26.15;41.40
43125;BME280;49182;50.788;7.318;2022-09-03T12:55:07;100363.44;;;26.18;41.05
43125;BME280;49182;50.788;7.318;2022-09-03T12:57:41;100355.91;;;26.21;40.80
43125;BME280;49182;50.788;7.318;2022-09-03T13:00:13;100370.56;;;26.36;41.44
43125;BME280;49182;50.788;7.318;2022-09-03T13:02:46;100346.84;;;26.27;41.00
43125;BME280;49182;50.788;7.318;2022-09-03T13:05:19;100369.94;;;26.46;40.72
43125;BME280;49182;50.788;7.318;2022-09-03T13:07:49;100364.44;;;26.57;41.16
43125;BME280;49182;50.788;7.318;2022-09-03T13:10:24;100358.78;;;26.59;40.94
43125;BME280;49182;50.788;7.318;2022-09-03T13:12:57;100357.72;;;26.60;40.72
43125;BME280;49182;50.788;7.318;2022-09-03T13:15:24;100367.31;;;26.68;40.11
43125;BME280;49182;50.788;7.318;2022-09-03T13:18:05;100353.94;;;26.61;41.20
43125;BME280;49182;50.788;7.318;2022-09-03T13:20:38;100355.09;;;26.65;40.29